createdAt,value
2022-10-15T00:02:23.081Z,47.45
2022-10-15T00:05:08.563Z,43.40
2022-10-15T00:07:54.573Z,37.38
2022-10-15T00:10:40.050Z,31.02
2022-10-15T00:13:25.361Z,28.70
2022-10-15T00:16:20.691Z,27.35
2022-10-15T00:19:06.338Z,24.63
2022-10-15T00:21:51.509Z,22.30
2022-10-15T00:24:37.285Z,21.00
2022-10-15T00:27:22.599Z,20.63
2022-10-15T00:30:08.945Z,19.98
2022-10-15T00:32:54.350Z,19.95
2022-10-15T00:35:39.570Z,20.75
2022-10-15T00:38:25.026Z,19.88
2022-10-15T00:41:20.747Z,21.17
2022-10-15T00:44:21.455Z,20.05
2022-10-15T00:47:17.982Z,19.55
2022-10-15T00:50:12.617Z,19.30
2022-10-15T00:53:07.999Z,20.85
2022-10-15T00:55:54.307Z,20.35
2022-10-15T00:58:40.496Z,19.73
2022-10-15T01:01:26.678Z,19.95
2022-10-15T01:04:12.880Z,20.63
2022-10-15T01:06:58.544Z,20.75
2022-10-15T01:09:43.907Z,25.33
2022-10-15T01:12:54.316Z,21.58
2022-10-15T01:16:08.106Z,22.05
2022-10-15T01:19:00.369Z,23.63
2022-10-15T01:21:57.072Z,24.05
2022-10-15T01:25:04.209Z,24.05
2022-10-15T01:27:56.619Z,23.08
2022-10-15T01:33:45.325Z,23.73
2022-10-15T01:36:39.477Z,22.95
2022-10-15T01:39:34.521Z,24.00
2022-10-15T01:42:30.108Z,23.67
2022-10-15T01:45:31.847Z,23.70
2022-10-15T01:48:47.213Z,22.38
2022-10-15T01:51:35.251Z,22.63
2022-10-15T01:54:23.767Z,22.83
2022-10-15T01:57:12.192Z,23.67
2022-10-15T01:59:58.917Z,23.20
2022-10-15T02:02:44.233Z,23.00
2022-10-15T02:05:40.189Z,23.40
2022-10-15T02:08:31.231Z,22.95
2022-10-15T02:11:17.923Z,22.48
2022-10-15T02:14:11.532Z,23.20
2022-10-15T02:17:06.679Z,22.80
2022-10-15T02:23:04.471Z,23.48
2022-10-15T02:25:52.525Z,25.50
2022-10-15T02:28:42.211Z,23.17
2022-10-15T02:31:31.501Z,23.20
2022-10-15T02:34:22.554Z,25.20
2022-10-15T02:37:09.146Z,24.48
2022-10-15T02:39:54.897Z,23.80
2022-10-15T02:42:40.411Z,25.30
2022-10-15T02:45:26.771Z,24.23
2022-10-15T02:48:12.244Z,26.38
2022-10-15T02:50:57.829Z,25.65
2022-10-15T02:53:43.277Z,25.15
2022-10-15T02:59:19.736Z,24.80
2022-10-15T03:02:05.242Z,24.85
2022-10-15T03:04:51.040Z,23.60
2022-10-15T03:07:37.433Z,23.70
2022-10-15T03:10:23.254Z,24.30
2022-10-15T03:13:09.060Z,23.20
2022-10-15T03:16:07.422Z,25.52
2022-10-15T03:18:54.375Z,24.80
2022-10-15T03:21:39.903Z,23.75
2022-10-15T03:24:30.546Z,25.02
2022-10-15T03:27:16.422Z,25.75
2022-10-15T03:30:01.888Z,25.38
2022-10-15T03:32:50.958Z,26.52
2022-10-15T03:35:37.351Z,25.42
2022-10-15T03:38:23.460Z,24.40
2022-10-15T03:41:10.946Z,25.02
2022-10-15T03:44:04.363Z,26.08
2022-10-15T03:46:50.380Z,26.02
2022-10-15T03:49:40.496Z,25.05
2022-10-15T03:52:25.970Z,25.35
2022-10-15T03:55:13.342Z,24.88
2022-10-15T03:58:01.381Z,25.52
2022-10-15T04:00:47.068Z,26.48
2022-10-15T04:03:32.980Z,25.60
2022-10-15T04:06:18.335Z,26.63
2022-10-15T04:09:04.853Z,26.52
2022-10-15T04:11:50.363Z,26.15
2022-10-15T04:14:36.972Z,25.58
2022-10-15T04:17:22.756Z,25.77
2022-10-15T04:20:09.971Z,25.65
2022-10-15T04:22:56.767Z,25.40
2022-10-15T04:25:43.432Z,27.08
2022-10-15T04:28:30.023Z,25.02
2022-10-15T04:31:15.929Z,26.73
2022-10-15T04:34:01.493Z,27.08
2022-10-15T04:36:47.423Z,27.33
2022-10-15T04:39:37.192Z,27.67
2022-10-15T04:42:22.606Z,27.90
2022-10-15T04:45:08.376Z,26.55
2022-10-15T04:47:54.056Z,28.08
2022-10-15T04:50:39.995Z,25.95
2022-10-15T04:53:37.833Z,25.83
2022-10-15T04:56:23.321Z,25.05
2022-10-15T04:59:08.709Z,25.52
2022-10-15T05:02:11.687Z,26.02
2022-10-15T05:04:57.380Z,25.23
2022-10-15T05:07:42.967Z,25.08
2022-10-15T05:10:29.357Z,25.65
2022-10-15T05:13:16.466Z,26.08
2022-10-15T05:16:14.891Z,24.95
2022-10-15T05:19:06.680Z,24.52
2022-10-15T05:21:54.417Z,24.27
2022-10-15T05:24:43.311Z,25.23
2022-10-15T05:27:33.448Z,24.75
2022-10-15T05:30:19.868Z,24.40
2022-10-15T05:33:10.000Z,26.50
2022-10-15T05:35:56.589Z,26.73
2022-10-15T05:38:43.026Z,26.30
2022-10-15T05:41:29.941Z,26.48
2022-10-15T05:44:15.575Z,27.15
2022-10-15T05:47:00.900Z,27.70
2022-10-15T05:49:46.499Z,29.13
2022-10-15T05:52:36.819Z,29.17
2022-10-15T05:55:31.907Z,30.20
2022-10-15T05:58:17.174Z,29.08
2022-10-15T06:01:04.973Z,29.15
2022-10-15T06:03:51.765Z,28.23
2022-10-15T06:06:37.193Z,30.10
2022-10-15T06:09:22.763Z,34.80
2022-10-15T06:12:08.246Z,31.63
2022-10-15T06:14:53.656Z,29.83
2022-10-15T06:17:39.056Z,30.58
2022-10-15T06:20:24.302Z,31.13
2022-10-15T06:23:10.972Z,30.80
2022-10-15T06:25:56.586Z,30.75
2022-10-15T06:28:42.277Z,31.70
2022-10-15T06:31:27.553Z,31.02
2022-10-15T06:34:13.068Z,30.35
2022-10-15T06:36:58.517Z,31.35
2022-10-15T06:39:44.184Z,31.30
2022-10-15T06:42:29.415Z,31.25
2022-10-15T06:45:18.117Z,33.45
2022-10-15T06:48:07.578Z,31.80
2022-10-15T06:50:52.774Z,31.05
2022-10-15T06:53:41.079Z,30.85
2022-10-15T06:56:26.492Z,29.92
2022-10-15T06:59:11.900Z,29.83
2022-10-15T07:01:57.445Z,27.73
2022-10-15T07:04:42.793Z,28.67
2022-10-15T07:07:34.206Z,28.90
2022-10-15T07:13:05.974Z,26.92
2022-10-15T07:15:53.915Z,25.08
2022-10-15T07:18:39.984Z,23.85
2022-10-15T07:21:25.361Z,23.40
2022-10-15T07:24:10.682Z,21.42
2022-10-15T07:26:56.155Z,23.60
2022-10-15T07:29:41.795Z,22.42
2022-10-15T07:32:27.503Z,21.08
2022-10-15T07:35:13.367Z,22.02
2022-10-15T07:38:01.669Z,23.33
2022-10-15T07:40:47.231Z,24.35
2022-10-15T07:43:34.121Z,23.23
2022-10-15T07:46:19.734Z,22.92
2022-10-15T07:49:05.473Z,24.05
2022-10-15T07:51:51.189Z,23.25
2022-10-15T07:54:36.736Z,23.30
2022-10-15T07:57:22.372Z,22.48
2022-10-15T08:00:09.196Z,24.13
2022-10-15T08:02:57.913Z,23.35
2022-10-15T08:05:43.350Z,27.15
2022-10-15T08:08:29.552Z,24.95
2022-10-15T08:11:16.517Z,23.88
2022-10-15T08:14:03.689Z,24.25
2022-10-15T08:16:48.863Z,23.65
2022-10-15T08:19:34.659Z,23.25
2022-10-15T08:22:19.720Z,24.35
2022-10-15T08:25:05.342Z,25.08
2022-10-15T08:27:52.694Z,24.27
2022-10-15T08:30:38.280Z,24.40
2022-10-15T08:33:29.386Z,25.58
2022-10-15T08:36:14.955Z,25.13
2022-10-15T08:39:03.505Z,25.92
2022-10-15T08:41:54.878Z,25.08
2022-10-15T08:45:04.109Z,23.48
2022-10-15T08:48:03.908Z,24.15
2022-10-15T08:50:58.311Z,23.38
2022-10-15T08:53:49.667Z,22.38
2022-10-15T08:56:43.520Z,22.92
2022-10-15T08:59:46.775Z,20.95
2022-10-15T09:02:53.000Z,20.10
2022-10-15T09:06:02.740Z,19.13
2022-10-15T09:08:51.017Z,19.25
2022-10-15T09:11:50.308Z,18.55
2022-10-15T09:14:41.208Z,18.13
2022-10-15T09:17:31.364Z,16.20
2022-10-15T09:20:33.514Z,16.83
2022-10-15T09:23:22.429Z,15.20
2022-10-15T09:26:32.936Z,15.05
2022-10-15T09:29:24.973Z,13.38
2022-10-15T09:32:31.462Z,13.93
2022-10-15T09:35:30.158Z,12.65
2022-10-15T09:38:25.650Z,12.73
2022-10-15T09:41:41.676Z,12.35
2022-10-15T09:44:39.697Z,11.98
2022-10-15T09:47:29.818Z,13.45
2022-10-15T09:50:21.280Z,11.95
2022-10-15T09:53:45.519Z,13.73
2022-10-15T09:56:42.315Z,12.00
2022-10-15T09:59:28.188Z,11.43
2022-10-15T10:02:19.686Z,11.93
2022-10-15T10:05:28.464Z,11.38
2022-10-15T10:08:21.721Z,10.73
2022-10-15T10:11:10.519Z,11.60
2022-10-15T10:13:58.797Z,13.10
2022-10-15T10:17:06.023Z,13.15
2022-10-15T10:20:09.675Z,12.30
2022-10-15T10:23:00.664Z,13.05
2022-10-15T10:25:45.829Z,12.10
2022-10-15T10:28:44.120Z,11.73
2022-10-15T10:31:42.422Z,11.48
2022-10-15T10:34:32.838Z,10.95
2022-10-15T10:37:18.458Z,10.93
2022-10-15T10:40:04.761Z,10.50
2022-10-15T10:43:19.392Z,10.55
2022-10-15T10:46:19.213Z,10.75
2022-10-15T10:49:05.275Z,11.18
2022-10-15T10:51:50.744Z,11.57
2022-10-15T10:54:36.690Z,11.05
2022-10-15T10:57:34.809Z,8.88
2022-10-15T11:00:43.363Z,9.15
2022-10-15T11:03:35.850Z,8.63
2022-10-15T11:06:29.897Z,7.53
2022-10-15T11:09:24.202Z,7.30
2022-10-15T11:12:21.872Z,7.00
2022-10-15T11:15:25.104Z,7.07
2022-10-15T11:18:28.698Z,6.93
2022-10-15T11:21:24.725Z,6.00
2022-10-15T11:24:13.293Z,5.90
2022-10-15T11:27:15.588Z,5.70
2022-10-15T11:30:10.444Z,5.57
2022-10-15T11:33:19.179Z,4.95
2022-10-15T11:36:35.255Z,4.20
2022-10-15T11:39:45.693Z,4.07
2022-10-15T11:42:56.692Z,3.60
2022-10-15T11:46:12.633Z,3.72
2022-10-15T11:49:13.360Z,3.40
2022-10-15T11:52:31.602Z,3.42
2022-10-15T11:55:25.125Z,3.53
2022-10-15T11:58:39.821Z,3.10
2022-10-15T12:01:38.635Z,2.88
2022-10-15T12:04:49.622Z,2.88
2022-10-15T12:07:41.109Z,2.70
2022-10-15T12:10:55.246Z,2.40
2022-10-15T12:13:48.892Z,2.25
2022-10-15T12:16:56.196Z,2.40
2022-10-15T12:20:19.265Z,2.38
2022-10-15T12:23:04.846Z,2.30
2022-10-15T12:25:50.352Z,2.25
2022-10-15T12:28:36.412Z,2.13
2022-10-15T12:31:22.051Z,2.50
2022-10-15T12:34:41.144Z,2.90
2022-10-15T12:37:29.115Z,2.80
2022-10-15T12:40:23.493Z,2.60
2022-10-15T12:43:21.290Z,2.60
2022-10-15T12:46:09.441Z,3.50
2022-10-15T12:48:58.039Z,3.28
2022-10-15T12:51:43.236Z,3.28
2022-10-15T12:54:40.141Z,3.13
2022-10-15T12:57:31.778Z,3.65
2022-10-15T13:00:26.272Z,3.80
2022-10-15T13:03:25.376Z,3.55
2022-10-15T13:06:23.641Z,3.42
2022-10-15T13:09:11.752Z,3.10
2022-10-15T13:11:59.552Z,3.45
2022-10-15T13:14:53.018Z,3.05
2022-10-15T13:17:39.656Z,2.70
2022-10-15T13:20:37.808Z,2.58
2022-10-15T13:23:31.653Z,3.03
2022-10-15T13:26:25.754Z,2.92
2022-10-15T13:29:37.625Z,3.30
2022-10-15T13:32:23.909Z,3.38
2022-10-15T13:35:17.222Z,3.17
2022-10-15T13:38:04.673Z,2.80
2022-10-15T13:40:52.801Z,2.92
2022-10-15T13:43:38.016Z,2.42
2022-10-15T13:46:24.947Z,2.15
2022-10-15T13:49:13.142Z,2.45
2022-10-15T13:51:58.572Z,2.53
2022-10-15T13:54:47.161Z,2.30
2022-10-15T13:57:32.397Z,2.33
2022-10-15T14:00:37.336Z,1.90
2022-10-15T14:03:25.612Z,1.70
2022-10-15T14:06:29.240Z,1.10
2022-10-15T14:09:22.826Z,1.67
2022-10-15T14:12:08.655Z,0.90
2022-10-15T14:14:54.879Z,0.93
2022-10-15T14:17:40.452Z,0.80
2022-10-15T14:20:27.637Z,1.10
2022-10-15T14:23:21.998Z,0.90
2022-10-15T14:26:08.471Z,0.82
2022-10-15T14:28:55.994Z,0.60
2022-10-15T14:31:46.892Z,0.80
2022-10-15T14:34:39.891Z,0.80
2022-10-15T14:37:41.403Z,0.75
2022-10-15T14:40:27.131Z,0.90
2022-10-15T14:43:17.183Z,0.80
2022-10-15T14:46:11.708Z,0.88
2022-10-15T14:48:57.137Z,1.00
2022-10-15T14:51:42.945Z,0.90
2022-10-15T14:54:34.805Z,0.93
2022-10-15T14:57:23.826Z,0.75
2022-10-15T15:00:21.441Z,1.33
2022-10-15T15:03:07.449Z,0.90
2022-10-15T15:05:55.601Z,0.80
2022-10-15T15:08:41.793Z,1.00
2022-10-15T15:11:26.903Z,1.00
2022-10-15T15:14:32.875Z,1.08
2022-10-15T15:17:21.236Z,1.00
2022-10-15T15:20:07.158Z,1.33
2022-10-15T15:22:54.552Z,1.02
2022-10-15T15:25:40.083Z,0.80
2022-10-15T15:28:27.272Z,0.70
2022-10-15T15:31:16.285Z,1.00
2022-10-15T15:34:01.338Z,1.00
2022-10-15T15:36:46.867Z,0.90
2022-10-15T15:39:32.442Z,0.82
2022-10-15T15:42:20.432Z,0.88
2022-10-15T15:45:06.271Z,1.00
2022-10-15T15:47:52.375Z,0.95
2022-10-15T15:50:38.010Z,1.00
2022-10-15T15:53:23.080Z,0.80
2022-10-15T15:56:08.396Z,1.00
2022-10-15T15:58:54.024Z,0.98
2022-10-15T16:01:39.554Z,1.05
2022-10-15T16:04:24.922Z,0.80
2022-10-15T16:07:13.304Z,0.90
2022-10-15T16:09:59.897Z,0.93
2022-10-15T16:12:45.233Z,0.75
2022-10-15T16:15:30.791Z,0.82
2022-10-15T16:18:16.204Z,0.65
2022-10-15T16:21:01.741Z,0.80
2022-10-15T16:23:47.242Z,0.70
2022-10-15T16:26:33.057Z,0.75
2022-10-15T16:29:18.456Z,0.77
2022-10-15T16:32:04.508Z,0.70
2022-10-15T16:34:51.123Z,0.70
2022-10-15T16:37:36.641Z,0.80
2022-10-15T16:40:22.383Z,0.88
2022-10-15T16:43:08.095Z,0.70
2022-10-15T16:45:58.208Z,0.70
2022-10-15T16:48:43.864Z,0.60
2022-10-15T16:54:16.597Z,0.90
2022-10-15T16:57:01.997Z,0.70
2022-10-15T16:59:47.402Z,0.70
2022-10-15T17:02:32.835Z,0.70
2022-10-15T17:05:18.586Z,0.80
2022-10-15T17:08:03.791Z,0.70
2022-10-15T17:10:49.272Z,0.75
2022-10-15T17:13:34.778Z,0.80
2022-10-15T17:16:29.170Z,1.02
2022-10-15T17:19:21.447Z,0.90
2022-10-15T17:22:06.613Z,0.70
2022-10-15T17:24:51.975Z,0.80
2022-10-15T17:27:37.500Z,0.80
2022-10-15T17:30:22.835Z,1.10
2022-10-15T17:33:08.325Z,0.77
2022-10-15T17:35:53.498Z,0.70
2022-10-15T17:38:39.137Z,0.80
2022-10-15T17:41:26.564Z,0.90
2022-10-15T17:44:12.473Z,0.82
2022-10-15T17:46:57.907Z,0.90
2022-10-15T17:49:46.555Z,0.80
2022-10-15T17:52:33.690Z,1.00
2022-10-15T17:55:19.286Z,1.35
2022-10-15T17:58:04.988Z,0.80
2022-10-15T18:00:55.341Z,0.73
2022-10-15T18:03:42.105Z,0.82
2022-10-15T18:06:28.191Z,1.33
2022-10-15T18:09:13.227Z,0.90
2022-10-15T18:12:00.527Z,1.20
2022-10-15T18:14:46.014Z,1.25
2022-10-15T18:17:37.107Z,1.30
2022-10-15T18:20:24.095Z,1.10
2022-10-15T18:23:09.540Z,1.20
2022-10-15T18:26:06.521Z,1.70
2022-10-15T18:28:53.890Z,1.90
2022-10-15T18:31:39.373Z,1.55
2022-10-15T18:34:24.961Z,1.17
2022-10-15T18:37:10.236Z,1.30
2022-10-15T18:39:55.841Z,1.30
2022-10-15T18:42:42.165Z,0.90
2022-10-15T18:45:36.819Z,0.90
2022-10-15T18:48:22.357Z,0.85
2022-10-15T18:51:10.919Z,1.00
2022-10-15T18:53:56.623Z,1.10
2022-10-15T18:56:42.250Z,1.10
2022-10-15T18:59:27.766Z,1.08
2022-10-15T19:02:13.383Z,1.30
2022-10-15T19:04:58.848Z,1.10
2022-10-15T19:07:45.246Z,1.10
2022-10-15T19:10:31.096Z,0.90
2022-10-15T19:13:16.262Z,0.90
2022-10-15T19:16:03.363Z,0.80
2022-10-15T19:18:48.676Z,0.88
2022-10-15T19:21:37.370Z,1.10
2022-10-15T19:24:23.541Z,1.17
2022-10-15T19:29:55.309Z,1.20
2022-10-15T19:32:40.899Z,1.05
2022-10-15T19:35:26.481Z,0.95
2022-10-15T19:38:12.925Z,1.15
2022-10-15T19:41:03.092Z,1.10
2022-10-15T19:43:48.361Z,1.20
2022-10-15T19:46:37.922Z,1.10
2022-10-15T19:49:23.536Z,1.48
2022-10-15T19:52:09.078Z,1.05
2022-10-15T19:54:55.388Z,1.10
2022-10-15T19:57:40.925Z,1.05
2022-10-15T20:00:26.333Z,1.20
2022-10-15T20:03:11.679Z,1.00
2022-10-15T20:05:57.481Z,1.00
2022-10-15T20:08:42.880Z,0.93
2022-10-15T20:11:28.109Z,1.20
2022-10-15T20:14:13.715Z,1.20
2022-10-15T20:16:58.977Z,0.90
2022-10-15T20:19:44.972Z,1.00
2022-10-15T20:22:30.542Z,1.20
2022-10-15T20:25:16.921Z,0.93
2022-10-15T20:28:02.133Z,1.20
2022-10-15T20:30:49.627Z,1.10
2022-10-15T20:33:35.357Z,1.00
2022-10-15T20:36:23.829Z,1.10
2022-10-15T20:39:09.292Z,0.90
2022-10-15T20:41:54.775Z,1.30
2022-10-15T20:44:40.181Z,1.20
2022-10-15T20:47:25.921Z,1.15
2022-10-15T20:50:16.116Z,0.85
2022-10-15T20:53:02.864Z,1.00
2022-10-15T20:55:48.357Z,0.90
2022-10-15T20:58:33.723Z,1.25
2022-10-15T21:01:19.712Z,1.10
2022-10-15T21:04:06.076Z,1.08
2022-10-15T21:06:51.451Z,0.80
2022-10-15T21:09:36.777Z,0.93
2022-10-15T21:12:22.155Z,0.80
2022-10-15T21:15:08.047Z,0.95
2022-10-15T21:17:53.489Z,0.90
2022-10-15T21:20:38.998Z,0.98
2022-10-15T21:23:24.439Z,0.93
2022-10-15T21:26:15.666Z,0.80
2022-10-15T21:29:00.885Z,0.80
2022-10-15T21:31:47.693Z,0.85
2022-10-15T21:34:32.861Z,0.82
2022-10-15T21:37:18.290Z,1.00
2022-10-15T21:40:04.233Z,1.25
2022-10-15T21:42:49.610Z,1.20
2022-10-15T21:45:34.873Z,0.80
2022-10-15T21:48:20.642Z,1.00
2022-10-15T21:51:10.413Z,0.90
2022-10-15T21:53:57.781Z,1.00
2022-10-15T21:56:42.967Z,0.80
2022-10-15T21:59:28.622Z,1.02
2022-10-15T22:02:14.087Z,0.70
2022-10-15T22:04:59.492Z,0.65
2022-10-15T22:07:44.721Z,0.80
2022-10-15T22:10:31.095Z,0.88
2022-10-15T22:13:16.302Z,0.80
2022-10-15T22:16:01.835Z,0.75
2022-10-15T22:18:47.460Z,0.70
2022-10-15T22:21:36.423Z,0.93
2022-10-15T22:24:21.916Z,0.90
2022-10-15T22:27:08.519Z,0.80
2022-10-15T22:29:53.913Z,1.00
2022-10-15T22:32:39.390Z,0.85
2022-10-15T22:35:24.781Z,0.80
2022-10-15T22:38:10.402Z,0.88
2022-10-15T22:40:56.018Z,1.00
2022-10-15T22:43:42.649Z,0.80
2022-10-15T22:46:28.565Z,1.00
2022-10-15T22:49:14.292Z,0.82
2022-10-15T22:51:59.618Z,1.13
2022-10-15T22:54:45.140Z,0.80
2022-10-15T22:57:30.428Z,1.00
2022-10-15T23:00:16.213Z,0.80
2022-10-15T23:03:01.421Z,0.90
2022-10-15T23:05:53.995Z,0.70
2022-10-15T23:11:34.409Z,0.90
2022-10-15T23:14:19.662Z,0.73
2022-10-15T23:17:05.299Z,0.88
2022-10-15T23:19:50.665Z,0.90
2022-10-15T23:22:36.241Z,1.20
2022-10-15T23:25:21.520Z,0.90
2022-10-15T23:28:07.013Z,0.68
2022-10-15T23:30:52.801Z,0.93
2022-10-15T23:33:38.114Z,0.80
2022-10-15T23:36:25.205Z,0.70
2022-10-15T23:39:19.594Z,0.80
2022-10-15T23:42:05.061Z,0.93
2022-10-15T23:44:50.501Z,1.23
2022-10-15T23:47:35.665Z,1.05
2022-10-15T23:50:21.087Z,0.70
2022-10-15T23:53:06.182Z,0.70
2022-10-15T23:55:51.729Z,0.90
2022-10-15T23:58:37.759Z,0.90
